Time;durP1;ratioP1;P1;durP2;ratioP2;P2;SDS_P1;SDS_P2;PMS_P1;PMS_P2;Temp;Humidity;BMP_temperature;BMP_pressure;BME280_temperature;BME280_humidity;BME280_pressure;Samples;Min_cycle;Max_cycle;Signal;HPM_P1;HPM_P2
2021/11/08 00:01:59;;;;;;;14.80;2.55;;;9.90;96.60;;;;;;5050935;28;20037;-69
2021/11/08 00:04:25;;;;;;;18.17;3.05;;;10.00;96.20;;;;;;5050807;28;20033;-70
2021/11/08 00:06:51;;;;;;;12.77;2.83;;;9.90;96.60;;;;;;5050445;28;20029;-70
2021/11/08 00:09:18;;;;;;;14.85;2.63;;;9.90;96.70;;;;;;5050790;28;20034;-70
2021/11/08 00:11:45;;;;;;;15.45;2.33;;;9.80;96.70;;;;;;5050729;28;20081;-69
2021/11/08 00:14:14;;;;;;;19.08;2.22;;;9.90;96.80;;;;;;5050687;28;20032;-69
2021/11/08 00:16:47;;;;;;;17.25;2.28;;;9.90;96.60;;;;;;5050753;28;20457;-69
2021/11/08 00:19:38;;;;;;;15.82;2.42;;;9.90;96.70;;;;;;5051131;28;20032;-70
2021/11/08 00:22:04;;;;;;;16.40;3.05;;;9.90;96.80;;;;;;5050726;28;20072;-69
2021/11/08 00:24:32;;;;;;;25.27;2.78;;;9.80;96.70;;;;;;5050501;28;20202;-70
2021/11/08 00:26:59;;;;;;;14.25;2.33;;;9.90;96.70;;;;;;5050715;28;20106;-70
2021/11/08 00:29:25;;;;;;;19.33;2.40;;;9.80;96.70;;;;;;5050905;28;20033;-70
2021/11/08 00:31:51;;;;;;;19.35;2.58;;;9.80;96.80;;;;;;5049485;28;20474;-70
2021/11/08 00:34:17;;;;;;;9.50;2.05;;;9.80;96.90;;;;;;5050965;28;20025;-70
2021/11/08 00:36:42;;;;;;;12.23;2.10;;;9.90;96.70;;;;;;5049621;28;20033;-70
2021/11/08 00:39:10;;;;;;;16.23;2.70;;;9.80;96.70;;;;;;5050212;28;20030;-70
2021/11/08 00:41:36;;;;;;;21.23;2.15;;;9.90;96.70;;;;;;5050523;28;20331;-70
2021/11/08 00:44:02;;;;;;;16.58;2.28;;;9.90;96.60;;;;;;5050754;28;20025;-70
2021/11/08 00:46:28;;;;;;;17.52;2.47;;;9.80;96.70;;;;;;5050283;28;20063;-70
2021/11/08 00:48:54;;;;;;;9.85;2.05;;;9.80;96.70;;;;;;5050978;28;20025;-70
2021/11/08 00:51:19;;;;;;;16.50;2.67;;;9.70;96.80;;;;;;5050411;28;20052;-70
2021/11/08 00:53:46;;;;;;;15.23;2.20;;;9.70;96.90;;;;;;5050279;28;20041;-70
2021/11/08 00:56:17;;;;;;;14.02;2.13;;;9.70;96.90;;;;;;5050478;28;20029;-68
2021/11/08 00:58:44;;;;;;;19.75;3.05;;;9.70;96.90;;;;;;5050380;28;20033;-69
2021/11/08 01:01:12;;;;;;;16.55;2.33;;;9.80;96.80;;;;;;5050782;28;20501;-69
2021/11/08 01:03:43;;;;;;;20.00;3.28;;;9.70;96.90;;;;;;5050350;28;20112;-69
2021/11/08 01:06:10;;;;;;;18.95;3.83;;;9.70;96.90;;;;;;5050370;28;20025;-70
2021/11/08 01:08:35;;;;;;;18.73;2.17;;;9.60;97.10;;;;;;5050262;28;20033;-70
2021/11/08 01:11:01;;;;;;;18.20;3.45;;;9.70;97.00;;;;;;5050051;28;20127;-70
2021/11/08 01:13:27;;;;;;;20.33;2.25;;;9.80;97.00;;;;;;5050027;28;20041;-69
2021/11/08 01:15:55;;;;;;;10.15;2.40;;;9.80;96.80;;;;;;5050700;28;20013;-71
2021/11/08 01:18:21;;;;;;;14.85;2.40;;;9.80;96.80;;;;;;5050097;28;20025;-71
2021/11/08 01:20:47;;;;;;;24.92;3.13;;;9.80;96.80;;;;;;5050197;28;20032;-70
2021/11/08 01:23:15;;;;;;;16.90;1.92;;;9.80;96.80;;;;;;5049956;28;20029;-70
2021/11/08 01:25:41;;;;;;;13.13;2.53;;;9.80;96.70;;;;;;5050220;28;20083;-70
2021/11/08 01:28:08;;;;;;;11.40;2.33;;;9.90;96.80;;;;;;5049296;28;20474;-70
2021/11/08 01:30:35;;;;;;;15.57;2.13;;;9.80;96.70;;;;;;5050144;28;20037;-70
2021/11/08 01:33:09;;;;;;;19.63;2.85;;;9.80;96.90;;;;;;5049957;28;20029;-70
2021/11/08 01:35:42;;;;;;;13.05;2.60;;;9.80;96.80;;;;;;5050773;28;20029;-70
2021/11/08 01:38:12;;;;;;;12.95;2.45;;;9.80;96.90;;;;;;5053550;28;20059;-70
2021/11/08 01:40:40;;;;;;;9.30;2.20;;;9.80;97.00;;;;;;5053606;28;20037;-69
2021/11/08 01:43:07;;;;;;;17.58;2.90;;;9.70;97.00;;;;;;5053860;28;20033;-69
2021/11/08 01:45:34;;;;;;;20.42;2.25;;;9.70;97.10;;;;;;5053366;28;20435;-69
2021/11/08 01:48:00;;;;;;;20.05;2.95;;;9.60;97.20;;;;;;5053475;28;20037;-69
2021/11/08 01:50:27;;;;;;;15.25;2.30;;;9.70;97.30;;;;;;5053367;28;20474;-69
2021/11/08 01:52:53;;;;;;;19.92;2.95;;;9.60;97.20;;;;;;5053144;28;20032;-69
2021/11/08 01:55:21;;;;;;;14.77;1.98;;;9.70;97.30;;;;;;5053241;28;20104;-70
2021/11/08 01:57:47;;;;;;;12.73;2.45;;;9.60;97.40;;;;;;5052426;28;20066;-70
2021/11/08 02:00:15;;;;;;;15.80;2.60;;;9.60;97.40;;;;;;5053181;28;20429;-69
2021/11/08 02:02:41;;;;;;;12.98;2.75;;;9.50;97.50;;;;;;5052222;28;20355;-69
2021/11/08 02:05:07;;;;;;;18.63;2.38;;;9.50;97.60;;;;;;5053090;28;20100;-69
2021/11/08 02:07:33;;;;;;;12.55;2.28;;;9.60;97.50;;;;;;5053090;28;20021;-70
2021/11/08 02:09:59;;;;;;;11.23;2.05;;;9.50;97.50;;;;;;5053436;28;20017;-69
2021/11/08 02:12:25;;;;;;;15.80;2.22;;;9.50;97.60;;;;;;5052432;28;20060;-69
2021/11/08 02:14:51;;;;;;;13.93;2.20;;;9.50;97.60;;;;;;5052929;28;20398;-70
2021/11/08 02:17:17;;;;;;;20.48;2.75;;;9.60;97.60;;;;;;5052915;28;20025;-69
2021/11/08 02:19:42;;;;;;;11.60;2.13;;;9.70;97.50;;;;;;5052834;28;20134;-69
2021/11/08 02:22:08;;;;;;;17.50;2.83;;;9.70;97.30;;;;;;5053122;28;20028;-69
2021/11/08 02:24:35;;;;;;;18.23;2.67;;;9.70;97.40;;;;;;5052896;28;20044;-69
2021/11/08 02:27:02;;;;;;;19.80;1.73;;;9.70;97.40;;;;;;5052812;28;20120;-69
2021/11/08 02:29:28;;;;;;;12.88;1.92;;;9.70;97.30;;;;;;5052855;28;20037;-69
2021/11/08 02:31:56;;;;;;;14.32;2.40;;;9.80;97.20;;;;;;5052615;28;20092;-69
2021/11/08 02:34:22;;;;;;;19.88;2.83;;;9.70;97.40;;;;;;5052786;28;20141;-70
2021/11/08 02:36:48;;;;;;;19.42;2.80;;;9.70;97.40;;;;;;5068023;28;20028;-69
2021/11/08 02:39:21;;;;;;;14.80;2.65;;;9.70;97.40;;;;;;5072387;28;20029;-69
2021/11/08 02:41:49;;;;;;;21.05;2.70;;;9.70;97.40;;;;;;5072380;28;20036;-70
2021/11/08 02:44:14;;;;;;;14.75;2.25;;;9.80;97.30;;;;;;5071388;28;20023;-68
2021/11/08 02:46:41;;;;;;;8.77;1.83;;;9.90;97.40;;;;;;5072313;28;20040;-69
2021/11/08 02:49:09;;;;;;;15.00;2.50;;;9.80;97.30;;;;;;5072975;28;20043;-70
2021/11/08 02:51:36;;;;;;;;;;;9.90;97.20;;;;;;5072509;28;20089;-70
2021/11/08 02:54:09;;;;;;;20.80;2.30;;;9.90;97.10;;;;;;5072062;28;20008;-70
2021/11/08 02:56:35;;;;;;;14.23;2.13;;;9.80;97.20;;;;;;5072124;28;20048;-70
2021/11/08 02:59:01;;;;;;;14.10;2.85;;;9.80;97.30;;;;;;5071924;28;20390;-70
2021/11/08 03:01:28;;;;;;;13.57;2.03;;;9.80;97.30;;;;;;5072018;28;20028;-70
2021/11/08 03:03:58;;;;;;;14.77;3.13;;;9.80;97.30;;;;;;5072236;28;20016;-70
2021/11/08 03:08:51;;;;;;;13.88;2.28;;;9.80;97.30;;;;;;5071684;28;20060;-69
2021/11/08 03:11:16;;;;;;;15.70;2.50;;;9.90;97.30;;;;;;5071459;28;20046;-70
2021/11/08 03:13:53;;;;;;;15.55;2.20;;;9.80;97.30;;;;;;5071674;28;20036;-70
2021/11/08 03:16:36;;;;;;;10.25;2.28;;;9.80;97.20;;;;;;5071543;28;20085;-70
2021/11/08 03:19:13;;;;;;;16.58;2.53;;;9.70;97.40;;;;;;5072042;28;20028;-70
2021/11/08 03:21:39;;;;;;;17.83;2.72;;;9.80;97.30;;;;;;5070556;28;20146;-70
2021/11/08 03:24:07;;;;;;;20.02;2.70;;;9.80;97.40;;;;;;5071421;28;20036;-70
2021/11/08 03:28:59;;;;;;;19.52;2.20;;;9.80;97.30;;;;;;5071577;28;20032;-70
2021/11/08 03:31:25;;;;;;;17.75;2.30;;;9.70;97.40;;;;;;5071376;28;20026;-70
2021/11/08 03:33:52;;;;;;;15.43;2.50;;;9.70;97.60;;;;;;5071787;28;20050;-70
2021/11/08 03:36:17;;;;;;;21.00;2.65;;;9.70;97.60;;;;;;5071375;28;20039;-70
2021/11/08 03:38:43;;;;;;;15.68;1.88;;;9.80;97.50;;;;;;5071249;28;20024;-70
2021/11/08 03:41:09;;;;;;;15.18;2.20;;;9.70;97.50;;;;;;5071150;28;20060;-70
2021/11/08 03:43:35;;;;;;;14.98;2.22;;;9.80;97.50;;;;;;5071217;28;20408;-70
2021/11/08 03:46:02;;;;;;;20.05;3.35;;;9.80;97.40;;;;;;5071933;28;20270;-70
2021/11/08 03:48:28;;;;;;;17.92;2.30;;;10.00;96.90;;;;;;5071235;28;20082;-70
2021/11/08 03:50:54;;;;;;;19.73;2.97;;;9.80;97.30;;;;;;5071105;28;20032;-70
2021/11/08 03:53:21;;;;;;;18.23;2.35;;;9.80;97.40;;;;;;5071060;28;20032;-70
2021/11/08 03:55:46;;;;;;;18.35;2.45;;;9.80;97.50;;;;;;5071006;28;20064;-70
2021/11/08 03:58:12;;;;;;;9.55;1.90;;;9.80;97.30;;;;;;5070941;28;20024;-70
2021/11/08 04:00:40;;;;;;;7.60;2.05;;;9.70;97.30;;;;;;5069776;28;20051;-70
2021/11/08 04:03:08;;;;;;;;;;;9.70;97.30;;;;;;5071427;28;20025;-70
2021/11/08 04:05:36;;;;;;;14.68;2.45;;;9.70;97.20;;;;;;5071066;28;20362;-70
2021/11/08 04:08:07;;;;;;;20.77;2.55;;;9.60;97.40;;;;;;5071166;28;20166;-70
2021/11/08 04:10:33;;;;;;;14.63;3.05;;;9.60;97.30;;;;;;5070634;28;20016;-70
2021/11/08 04:13:05;;;;;;;18.05;2.35;;;9.60;97.30;;;;;;5071244;28;20320;-70
2021/11/08 04:15:43;;;;;;;14.52;2.28;;;9.50;97.40;;;;;;5070756;28;20035;-70
2021/11/08 04:18:11;;;;;;;16.67;2.63;;;9.50;97.50;;;;;;5070754;28;20466;-69
2021/11/08 04:20:41;;;;;;;24.23;3.38;;;9.50;97.80;;;;;;5070786;28;20029;-69
2021/11/08 04:23:07;;;;;;;22.20;2.67;;;9.50;97.50;;;;;;5070709;28;20485;-69
2021/11/08 04:25:32;;;;;;;14.40;2.70;;;9.50;97.60;;;;;;5070744;28;20024;-69
2021/11/08 04:27:58;;;;;;;13.65;2.22;;;9.40;97.60;;;;;;5070980;28;20393;-69
2021/11/08 04:30:26;;;;;;;13.23;2.13;;;9.50;97.60;;;;;;5070671;28;20040;-69
2021/11/08 04:51:45;;;;;;;14.10;2.95;;;9.70;97.30;;;;;;5070443;28;20029;-70
2021/11/08 05:24:22;;;;;;;19.92;3.10;;;9.80;97.20;;;;;;5073901;28;20029;-71
2021/11/08 05:32:20;;;;;;;19.02;2.83;;;9.70;97.10;;;;;;5073816;28;20071;-70
2021/11/08 05:34:46;;;;;;;21.70;3.00;;;9.70;97.10;;;;;;5073788;28;20036;-69
2021/11/08 05:37:12;;;;;;;19.38;2.35;;;9.70;97.20;;;;;;5073970;28;20020;-69
2021/11/08 05:39:45;;;;;;;14.82;2.35;;;9.60;97.60;;;;;;5073515;28;20025;-68
2021/11/08 05:42:11;;;;;;;17.23;2.63;;;9.70;97.30;;;;;;5073550;28;20481;-69
2021/11/08 05:44:39;;;;;;;16.40;2.42;;;9.60;97.30;;;;;;5073297;28;20068;-69
2021/11/08 05:47:05;;;;;;;16.58;2.60;;;9.70;97.20;;;;;;5073255;28;20059;-69
2021/11/08 05:49:31;;;;;;;15.40;2.50;;;9.80;97.10;;;;;;5073402;28;20062;-68
2021/11/08 05:51:57;;;;;;;9.93;2.22;;;9.70;97.10;;;;;;5072519;28;20450;-70
2021/11/08 05:54:22;;;;;;;11.98;1.90;;;9.60;97.20;;;;;;5072157;28;20025;-70
2021/11/08 05:57:09;;;;;;;12.45;2.10;;;9.60;97.30;;;;;;5072054;28;20050;-69
2021/11/08 05:59:57;;;;;;;18.52;2.40;;;9.50;97.30;;;;;;5073176;28;20033;-70
2021/11/08 06:49:28;;;;;;;17.42;3.05;;;9.50;97.30;;;;;;5071512;28;20031;-70
2021/11/08 06:51:56;;;;;;;16.25;2.97;;;9.50;97.30;;;;;;5071704;28;20020;-70
2021/11/08 06:54:24;;;;;;;12.13;2.88;;;9.70;97.30;;;;;;5070891;28;20519;-70
2021/11/08 06:56:53;;;;;;;13.77;2.17;;;9.40;97.20;;;;;;5071313;28;20031;-70
2021/11/08 06:59:20;;;;;;;14.82;2.15;;;9.50;97.30;;;;;;5071633;28;20108;-71
2021/11/08 07:01:48;;;;;;;30.27;4.53;;;9.50;97.20;;;;;;5071239;28;20112;-70
2021/11/08 07:04:17;;;;;;;17.15;2.95;;;9.50;97.20;;;;;;5071630;28;20583;-70
2021/11/08 07:06:44;;;;;;;16.95;3.45;;;9.50;97.30;;;;;;5071445;28;20035;-70
2021/11/08 07:09:10;;;;;;;15.20;2.28;;;9.50;97.20;;;;;;5071318;28;20020;-70
2021/11/08 07:11:36;;;;;;;15.27;2.80;;;9.60;97.30;;;;;;5071033;28;20101;-74
2021/11/08 07:14:01;;;;;;;12.43;2.42;;;9.60;97.40;;;;;;5071368;28;20036;-71
2021/11/08 07:16:27;;;;;;;18.33;2.67;;;9.60;97.10;;;;;;5071516;28;20055;-74
2021/11/08 07:18:52;;;;;;;20.55;3.08;;;9.60;97.00;;;;;;5071707;28;20017;-74
2021/11/08 07:21:18;;;;;;;16.08;3.13;;;9.50;97.00;;;;;;5071356;28;20033;-75
2021/11/08 07:23:44;;;;;;;15.60;2.85;;;9.60;97.00;;;;;;5071360;28;20043;-75
2021/11/08 07:26:11;;;;;;;13.02;2.67;;;9.60;96.90;;;;;;5071509;28;20366;-74
2021/11/08 07:28:37;;;;;;;15.10;2.17;;;9.50;97.00;;;;;;5071207;28;20500;-74
2021/11/08 07:31:03;;;;;;;16.30;2.85;;;9.60;96.90;;;;;;5071378;28;20025;-74
2021/11/08 07:33:31;;;;;;;8.93;2.50;;;9.60;96.90;;;;;;5070303;28;20131;-74
2021/11/08 07:35:57;;;;;;;18.77;2.75;;;9.70;96.90;;;;;;5070013;28;20059;-76
2021/11/08 07:38:23;;;;;;;15.63;2.30;;;9.70;96.80;;;;;;5070876;28;20437;-74
2021/11/08 07:40:48;;;;;;;12.25;2.08;;;9.70;96.70;;;;;;5070854;28;20020;-75
2021/11/08 07:43:14;;;;;;;14.73;2.60;;;9.80;96.80;;;;;;5071331;28;20028;-76
2021/11/08 07:45:40;;;;;;;18.00;2.45;;;9.80;96.60;;;;;;5070914;28;20036;-75
2021/11/08 07:48:07;;;;;;;15.20;2.10;;;9.90;96.70;;;;;;5069918;28;20048;-75
2021/11/08 07:50:34;;;;;;;19.60;3.25;;;9.90;96.50;;;;;;5071107;28;20057;-76
2021/11/08 07:52:59;;;;;;;10.93;2.28;;;10.00;96.00;;;;;;5070529;28;20060;-76
2021/11/08 07:55:25;;;;;;;10.43;2.15;;;10.10;96.00;;;;;;5071006;28;20445;-74
2021/11/08 07:57:51;;;;;;;10.93;1.85;;;10.10;95.70;;;;;;5070059;28;20039;-76
2021/11/08 08:00:16;;;;;;;16.60;2.83;;;10.10;95.70;;;;;;5070673;28;20031;-75
2021/11/08 08:02:43;;;;;;;11.65;2.25;;;10.20;95.80;;;;;;5070390;28;20090;-74
2021/11/08 08:05:09;;;;;;;12.00;2.67;;;10.40;95.60;;;;;;5070856;28;20059;-74
2021/11/08 08:07:34;;;;;;;22.40;2.88;;;10.50;95.60;;;;;;5070542;28;20064;-73
2021/11/08 08:10:00;;;;;;;13.18;3.15;;;10.40;95.50;;;;;;5070765;28;20024;-75
2021/11/08 08:12:27;;;;;;;15.52;2.70;;;10.50;95.20;;;;;;5069431;28;20111;-73
2021/11/08 08:14:53;;;;;;;11.70;2.35;;;10.60;95.20;;;;;;5070321;28;20112;-75
2021/11/08 08:17:19;;;;;;;14.07;2.40;;;10.60;95.20;;;;;;5070710;28;20020;-75
2021/11/08 08:19:46;;;;;;;15.05;3.28;;;10.70;95.00;;;;;;5070563;28;20024;-75
2021/11/08 08:22:12;;;;;;;12.47;2.00;;;10.80;95.00;;;;;;5071113;28;20028;-75
2021/11/08 08:24:37;;;;;;;22.33;3.85;;;10.90;95.00;;;;;;5069674;28;20523;-75
2021/11/08 08:27:04;;;;;;;15.93;2.13;;;11.00;94.90;;;;;;5070400;28;20033;-73
2021/11/08 08:29:32;;;;;;;10.90;2.15;;;11.00;94.70;;;;;;5069377;28;20455;-73
2021/11/08 08:31:58;;;;;;;13.07;3.05;;;11.10;94.60;;;;;;5070055;28;20502;-75
2021/11/08 08:34:24;;;;;;;19.52;3.13;;;11.20;94.40;;;;;;5070534;28;20135;-73
2021/11/08 08:36:51;;;;;;;23.02;2.65;;;11.10;94.40;;;;;;5069585;28;20469;-75
2021/11/08 08:39:17;;;;;;;15.88;2.55;;;11.10;94.10;;;;;;5070094;28;20028;-75
2021/11/08 08:41:43;;;;;;;14.77;2.45;;;11.20;94.20;;;;;;5069939;28;20047;-77
2021/11/08 08:44:13;;;;;;;11.20;1.77;;;11.30;94.20;;;;;;5070111;28;20101;-76
2021/11/08 08:46:43;;;;;;;21.83;2.88;;;11.40;93.90;;;;;;5073267;28;20086;-74
2021/11/08 08:49:10;;;;;;;14.90;2.75;;;11.20;93.80;;;;;;5074699;28;20109;-74
2021/11/08 08:51:36;;;;;;;10.33;2.20;;;11.30;93.70;;;;;;5074194;28;20044;-75
2021/11/08 08:54:03;;;;;;;12.77;2.20;;;11.40;94.00;;;;;;5073877;28;20469;-75
2021/11/08 08:56:28;;;;;;;11.45;2.47;;;11.50;93.50;;;;;;5074298;28;20024;-74
2021/11/08 08:58:55;;;;;;;15.00;2.30;;;11.50;93.50;;;;;;5073954;28;20029;-74
2021/11/08 09:01:21;;;;;;;15.02;2.13;;;11.50;93.40;;;;;;5074059;28;20027;-74
2021/11/08 09:03:47;;;;;;;12.35;2.20;;;11.50;93.40;;;;;;5073206;28;20020;-74
2021/11/08 09:06:14;;;;;;;15.15;2.67;;;11.50;93.40;;;;;;5072765;28;20384;-74
2021/11/08 09:08:40;;;;;;;11.88;2.33;;;11.40;93.30;;;;;;5073909;28;20028;-75
2021/11/08 09:11:06;;;;;;;13.48;2.65;;;11.40;93.40;;;;;;5073777;28;20045;-75
2021/11/08 09:13:34;;;;;;;15.70;2.33;;;11.50;93.50;;;;;;5073858;28;20046;-74
2021/11/08 09:16:00;;;;;;;20.25;2.75;;;11.60;93.30;;;;;;5074013;28;20027;-73
2021/11/08 09:18:26;;;;;;;11.52;2.28;;;11.60;93.20;;;;;;5073932;28;20346;-76
2021/11/08 09:20:51;;;;;;;15.25;2.65;;;11.70;93.20;;;;;;5073783;28;20021;-76
2021/11/08 09:23:17;;;;;;;14.45;2.35;;;11.80;93.30;;;;;;5073602;28;20025;-73
2021/11/08 09:25:43;;;;;;;13.35;2.55;;;11.90;93.10;;;;;;5072668;28;20104;-76
2021/11/08 09:28:09;;;;;;;14.73;2.35;;;12.10;93.00;;;;;;5074009;28;20460;-74
2021/11/08 09:30:40;;;;;;;14.23;3.10;;;12.30;93.00;;;;;;5073934;28;20040;-76
2021/11/08 09:33:06;;;;;;;19.17;2.83;;;12.30;92.40;;;;;;5073199;28;20347;-76
2021/11/08 09:35:36;;;;;;;14.75;2.00;;;12.50;92.20;;;;;;5073807;28;20510;-75
2021/11/08 09:38:05;;;;;;;15.55;2.60;;;12.50;92.20;;;;;;5073487;28;20598;-76
2021/11/08 09:40:33;;;;;;;18.65;2.55;;;12.50;92.00;;;;;;5073388;28;20021;-76
2021/11/08 09:42:59;;;;;;;8.43;1.90;;;12.50;92.10;;;;;;5074013;28;20092;-75
2021/11/08 09:45:25;;;;;;;11.40;2.45;;;12.50;92.10;;;;;;5072405;28;20041;-75
2021/11/08 09:47:52;;;;;;;18.40;2.83;;;12.40;92.10;;;;;;5071917;28;20032;-75
2021/11/08 09:50:21;;;;;;;13.68;2.53;;;12.40;92.00;;;;;;5072410;28;20428;-75
2021/11/08 09:52:48;;;;;;;13.77;2.50;;;12.50;92.00;;;;;;5073138;28;20032;-76
2021/11/08 09:55:17;;;;;;;12.70;2.70;;;12.60;91.90;;;;;;5073654;28;20450;-76
2021/11/08 09:57:42;;;;;;;15.02;4.00;;;12.50;91.90;;;;;;5072329;28;20611;-75
2021/11/08 10:00:25;;;;;;;16.15;2.40;;;12.80;92.00;;;;;;5073041;28;20138;-76
2021/11/08 10:03:00;;;;;;;17.90;2.53;;;12.90;91.80;;;;;;5073035;28;20055;-76
2021/11/08 10:05:28;;;;;;;12.50;2.42;;;12.90;91.50;;;;;;5072646;28;20031;-79
2021/11/08 10:07:56;;;;;;;16.90;2.85;;;12.80;91.40;;;;;;5072985;28;20033;-77
2021/11/08 10:10:22;;;;;;;7.25;2.00;;;12.80;91.50;;;;;;5072320;28;20047;-76
2021/11/08 10:12:51;;;;;;;13.40;2.30;;;12.80;91.60;;;;;;5073374;28;20336;-75
2021/11/08 10:15:19;;;;;;;10.10;2.42;;;12.70;91.50;;;;;;5072828;28;20031;-76
2021/11/08 10:17:46;;;;;;;13.95;3.08;;;12.70;91.50;;;;;;5072993;28;20088;-76
2021/11/08 10:20:26;;;;;;;16.98;2.63;;;12.60;91.50;;;;;;5072718;28;20398;-75
2021/11/08 10:22:52;;;;;;;15.68;2.38;;;12.60;91.70;;;;;;5072699;28;20082;-74
2021/11/08 10:25:18;;;;;;;14.75;2.40;;;12.80;91.70;;;;;;5072449;28;20088;-74
2021/11/08 10:27:45;;;;;;;10.05;1.95;;;12.60;91.00;;;;;;5071879;28;20187;-74
2021/11/08 10:30:23;;;;;;;6.70;2.50;;;12.60;91.10;;;;;;5072360;28;20466;-74
2021/11/08 10:33:31;;;;;;;18.58;2.25;;;12.70;91.30;;;;;;5072388;28;20769;-74
2021/11/08 10:36:02;;;;;;;12.63;2.25;;;12.90;91.40;;;;;;5070706;28;20028;-73
2021/11/08 10:38:32;;;;;;;14.88;1.80;;;12.80;90.70;;;;;;5072310;28;20025;-74
2021/11/08 10:41:04;;;;;;;12.43;2.65;;;12.70;90.70;;;;;;5072384;28;20040;-74
2021/11/08 10:43:36;;;;;;;16.92;2.97;;;12.70;90.90;;;;;;5072317;28;20054;-75
2021/11/08 10:46:08;;;;;;;11.98;2.13;;;12.70;90.90;;;;;;5071419;28;20024;-75
2021/11/08 10:48:41;;;;;;;10.50;2.67;;;12.70;90.60;;;;;;5072038;28;20043;-74
2021/11/08 10:51:10;;;;;;;11.88;2.10;;;12.90;91.00;;;;;;5072262;28;20028;-76
2021/11/08 10:53:47;;;;;;;18.33;2.53;;;13.10;90.60;;;;;;5072075;28;20093;-75
2021/11/08 10:56:17;;;;;;;14.03;2.43;;;13.00;90.20;;;;;;5071824;28;20025;-76
2021/11/08 10:58:46;;;;;;;12.60;4.05;;;13.20;90.60;;;;;;5071812;28;20056;-76
2021/11/08 11:01:31;;;;;;;12.68;3.17;;;13.40;90.50;;;;;;5072016;28;20027;-75
2021/11/08 11:03:58;;;;;;;11.02;2.92;;;13.50;90.20;;;;;;5071904;28;20020;-75
2021/11/08 11:06:35;;;;;;;14.82;2.25;;;13.40;90.00;;;;;;5071981;28;20429;-75
2021/11/08 11:09:07;;;;;;;13.75;2.13;;;13.20;89.20;;;;;;5071809;28;20028;-74
2021/11/08 11:11:33;;;;;;;10.90;2.03;;;13.00;89.70;;;;;;5070230;28;20074;-75
2021/11/08 11:13:58;;;;;;;10.00;2.03;;;12.90;90.20;;;;;;5071478;28;20036;-74
2021/11/08 11:16:36;;;;;;;13.63;2.75;;;12.90;89.90;;;;;;5071339;28;20021;-75
2021/11/08 11:19:14;;;;;;;10.95;2.13;;;13.10;90.20;;;;;;5071816;28;20106;-72
2021/11/08 11:21:54;;;;;;;22.33;2.55;;;13.00;89.50;;;;;;5071172;28;20039;-71
2021/11/08 11:24:40;;;;;;;10.13;2.78;;;12.90;90.00;;;;;;5071191;28;20485;-72
2021/11/08 11:27:09;;;;;;;9.73;2.17;;;12.80;89.70;;;;;;5071001;28;20423;-73
2021/11/08 11:29:35;;;;;;;14.98;2.40;;;12.80;89.90;;;;;;5070949;28;20495;-71
2021/11/08 11:32:01;;;;;;;17.05;2.83;;;12.90;90.20;;;;;;5071044;28;20099;-71
2021/11/08 11:34:26;;;;;;;14.25;2.08;;;12.90;89.80;;;;;;5071006;28;20109;-71
2021/11/08 11:36:52;;;;;;;10.27;2.47;;;12.90;90.30;;;;;;5071394;28;20021;-73
2021/11/08 11:39:20;;;;;;;18.55;2.80;;;12.70;90.10;;;;;;5070957;28;20124;-77
2021/11/08 11:41:47;;;;;;;;;;;12.70;90.20;;;;;;5071719;28;20358;-75
2021/11/08 11:44:18;;;;;;;11.80;2.43;;;12.90;90.40;;;;;;5070878;28;20393;-72
2021/11/08 11:46:47;;;;;;;23.08;3.05;;;12.80;90.10;;;;;;5070850;28;20029;-75
2021/11/08 11:49:14;;;;;;;24.23;3.22;;;12.70;90.30;;;;;;5070411;28;20035;-75
2021/11/08 11:51:45;;;;;;;13.07;3.22;;;12.90;90.50;;;;;;5071071;28;20029;-75
2021/11/08 11:54:12;;;;;;;16.02;2.60;;;12.90;90.30;;;;;;5070693;28;20361;-69
2021/11/08 11:56:42;;;;;;;18.48;3.30;;;12.80;90.30;;;;;;5070712;28;20032;-71
2021/11/08 11:59:09;;;;;;;14.55;2.60;;;12.80;90.30;;;;;;5069716;28;20376;-73
2021/11/08 12:01:36;;;;;;;15.82;2.97;;;12.70;90.20;;;;;;5070825;28;20028;-76
2021/11/08 12:04:03;;;;;;;12.25;2.50;;;12.80;90.40;;;;;;5070802;28;20054;-73
2021/11/08 12:06:33;;;;;;;13.18;2.28;;;12.80;90.30;;;;;;5070972;28;20463;-73
2021/11/08 12:09:01;;;;;;;13.73;2.83;;;12.90;90.50;;;;;;5069825;28;20469;-72
2021/11/08 12:11:47;;;;;;;10.18;2.53;;;12.90;90.30;;;;;;5070441;28;20053;-73
2021/11/08 12:14:22;;;;;;;12.07;2.20;;;13.00;90.50;;;;;;5070498;28;20090;-73
2021/11/08 12:16:54;;;;;;;21.10;4.15;;;13.20;90.40;;;;;;5070398;28;20025;-73
2021/11/08 12:19:22;;;;;;;16.00;2.92;;;13.30;90.20;;;;;;5069837;28;20035;-72
2021/11/08 12:21:49;;;;;;;15.48;3.03;;;13.20;90.20;;;;;;5070561;28;20112;-71
2021/11/08 12:24:21;;;;;;;13.68;2.72;;;13.20;90.10;;;;;;5069587;28;20063;-75
2021/11/08 12:27:00;;;;;;;12.88;2.25;;;13.30;90.10;;;;;;5070297;28;20063;-74
2021/11/08 12:29:26;;;;;;;13.68;2.65;;;13.20;89.70;;;;;;5070592;28;20039;-74
2021/11/08 12:32:05;;;;;;;18.08;3.50;;;13.10;89.90;;;;;;5070205;28;20033;-73
2021/11/08 12:34:41;;;;;;;12.07;3.30;;;13.20;89.40;;;;;;5069429;28;20378;-72
2021/11/08 12:37:07;;;;;;;16.67;3.17;;;13.20;89.60;;;;;;5070706;28;20075;-72
2021/11/08 12:39:34;;;;;;;15.13;3.13;;;13.20;89.60;;;;;;5070358;28;20112;-73
2021/11/08 12:42:07;;;;;;;14.52;3.13;;;13.30;89.30;;;;;;5070160;28;20433;-74
2021/11/08 12:44:41;;;;;;;19.33;2.70;;;13.30;89.20;;;;;;5070073;28;20223;-73
2021/11/08 12:47:09;;;;;;;16.52;3.03;;;13.20;89.30;;;;;;5070099;28;20124;-74
2021/11/08 12:49:51;;;;;;;;;;;13.20;89.30;;;;;;5069427;28;20618;-72
2021/11/08 12:52:31;;;;;;;16.23;2.33;;;13.30;89.50;;;;;;5070686;28;19943;-74
2021/11/08 12:55:08;;;;;;;11.27;2.63;;;13.30;89.50;;;;;;5070388;28;20122;-75
2021/11/08 12:57:36;;;;;;;19.23;3.95;;;13.50;89.70;;;;;;5069889;28;20029;-73
2021/11/08 13:00:18;;;;;;;15.68;2.63;;;13.60;89.30;;;;;;5069012;28;20025;-73
2021/11/08 13:03:03;;;;;;;11.98;2.60;;;13.40;89.10;;;;;;5069594;28;20086;-72
2021/11/08 13:05:31;;;;;;;17.58;2.95;;;13.50;89.20;;;;;;5068612;28;20024;-74
2021/11/08 13:07:59;;;;;;;20.13;2.90;;;13.20;88.90;;;;;;5069490;28;20028;-75
2021/11/08 13:10:29;;;;;;;16.13;4.07;;;13.20;89.60;;;;;;5069515;28;20028;-74
2021/11/08 13:12:56;;;;;;;24.67;3.10;;;13.20;89.30;;;;;;5069950;28;20261;-73
2021/11/08 13:15:28;;;;;;;13.67;2.40;;;13.20;89.90;;;;;;5069681;28;20025;-76
2021/11/08 13:18:06;;;;;;;16.33;2.67;;;13.20;89.60;;;;;;5069711;28;20382;-75
2021/11/08 13:20:38;;;;;;;11.70;2.88;;;13.20;89.80;;;;;;5069701;28;20419;-73
2021/11/08 13:23:10;;;;;;;17.30;3.03;;;13.20;90.00;;;;;;5069619;28;20055;-73
2021/11/08 13:25:39;;;;;;;14.13;3.85;;;13.10;90.10;;;;;;5069729;28;20039;-76
2021/11/08 13:28:08;;;;;;;12.07;2.25;;;13.00;90.20;;;;;;5070009;28;20024;-73
2021/11/08 13:30:40;;;;;;;14.13;2.67;;;12.90;90.20;;;;;;5069661;28;20106;-72
2021/11/08 13:33:08;;;;;;;11.82;2.20;;;12.90;90.30;;;;;;5072409;28;20040;-75
2021/11/08 13:35:35;;;;;;;12.87;5.13;;;12.80;90.30;;;;;;5073286;28;20040;-76
2021/11/08 13:38:16;;;;;;;17.20;2.90;;;12.80;90.50;;;;;;5073333;28;20261;-76
2021/11/08 13:40:49;;;;;;;17.15;2.53;;;13.00;90.50;;;;;;5072214;28;20047;-74
2021/11/08 13:43:19;;;;;;;18.52;2.92;;;13.10;90.40;;;;;;5073658;28;20182;-76
2021/11/08 13:45:52;;;;;;;14.45;2.97;;;13.00;90.30;;;;;;5073184;28;20074;-75
2021/11/08 13:48:23;;;;;;;18.50;3.08;;;12.90;90.40;;;;;;5072988;28;20387;-74
2021/11/08 13:50:52;;;;;;;20.00;3.00;;;12.80;90.50;;;;;;5071571;28;20120;-75
2021/11/08 13:53:27;;;;;;;12.70;2.65;;;12.80;90.60;;;;;;5071952;28;20113;-76
2021/11/08 13:55:58;;;;;;;18.30;2.88;;;12.80;90.60;;;;;;5072691;28;20202;-70
2021/11/08 13:58:24;;;;;;;14.68;2.40;;;12.80;90.70;;;;;;5072508;28;20024;-70
2021/11/08 14:00:50;;;;;;;16.73;2.20;;;12.80;90.80;;;;;;5073048;28;20102;-70
2021/11/08 14:03:17;;;;;;;10.05;2.28;;;12.80;90.90;;;;;;5071407;28;20115;-70
2021/11/08 14:05:50;;;;;;;22.88;3.30;;;12.80;91.00;;;;;;5072468;28;20465;-70
2021/11/08 14:08:21;;;;;;;13.73;3.08;;;12.80;91.00;;;;;;5072227;28;20522;-71
2021/11/08 14:10:56;;;;;;;14.10;2.83;;;12.70;91.00;;;;;;5072142;28;20048;-70
2021/11/08 14:13:37;;;;;;;15.35;2.83;;;12.70;91.20;;;;;;5072222;28;20047;-70
2021/11/08 14:16:10;;;;;;;18.67;3.28;;;12.70;91.20;;;;;;5071592;28;20081;-70
2021/11/08 14:18:36;;;;;;;19.63;3.17;;;12.70;91.20;;;;;;5071974;28;20036;-69
2021/11/08 14:21:13;;;;;;;22.10;3.30;;;12.70;91.30;;;;;;5072255;28;20028;-70
2021/11/08 14:23:41;;;;;;;;;;;12.60;91.70;;;;;;5072702;28;20044;-70
2021/11/08 14:26:13;;;;;;;18.25;3.78;;;12.60;91.80;;;;;;5071161;28;19991;-70
2021/11/08 14:28:39;;;;;;;21.33;3.83;;;12.50;92.00;;;;;;5071990;28;20521;-70
2021/11/08 14:31:20;;;;;;;18.63;2.95;;;12.40;92.40;;;;;;5072423;28;20437;-70
2021/11/08 14:33:46;;;;;;;14.30;3.75;;;12.40;92.60;;;;;;5072062;28;20190;-72
2021/11/08 14:36:20;;;;;;;20.02;3.72;;;12.30;93.00;;;;;;5072146;28;20255;-70
2021/11/08 14:38:51;;;;;;;19.23;3.33;;;12.40;93.00;;;;;;5070542;28;20194;-70